Time;durP1;ratioP1;P1;durP2;ratioP2;P2;SDS_P1;SDS_P2;PMS_P1;PMS_P2;Temp;Humidity;BMP_temperature;BMP_pressure;BME280_temperature;BME280_humidity;BME280_pressure;Samples;Min_cycle;Max_cycle;Signal;HPM_P1;HPM_P2
2023/01/13 00:00:51;;;;;;;2.73;1.00;;;10.70;98.00;;;;;;5034331;28;20461;-72
2023/01/13 00:03:18;;;;;;;1.30;1.20;;;10.70;98.00;;;;;;5034108;28;20450;-72
2023/01/13 00:05:46;;;;;;;1.60;1.10;;;10.60;98.00;;;;;;5034201;28;20576;-72
2023/01/13 00:08:14;;;;;;;1.13;1.03;;;10.70;98.00;;;;;;5034185;28;20462;-72
2023/01/13 00:10:41;;;;;;;1.10;1.00;;;10.70;98.00;;;;;;5034135;28;20469;-72
2023/01/13 00:13:08;;;;;;;1.40;1.20;;;10.70;98.00;;;;;;5034168;28;20458;-72
2023/01/13 00:15:35;;;;;;;1.50;1.10;;;10.70;98.00;;;;;;5034213;28;20458;-72
2023/01/13 00:18:02;;;;;;;2.43;1.20;;;10.80;98.00;;;;;;5033876;28;20465;-72
2023/01/13 00:20:29;;;;;;;1.30;1.10;;;10.80;98.00;;;;;;5034291;28;20485;-72
2023/01/13 00:22:58;;;;;;;2.03;1.40;;;10.80;98.00;;;;;;5032606;28;20459;-72
2023/01/13 00:25:26;;;;;;;1.20;1.00;;;10.80;98.00;;;;;;5034111;28;20487;-72
2023/01/13 00:27:54;;;;;;;2.17;1.33;;;10.90;98.00;;;;;;5034097;28;21206;-72
2023/01/13 00:30:21;;;;;;;1.10;0.90;;;10.90;98.00;;;;;;5033927;28;20455;-72
2023/01/13 00:32:48;;;;;;;1.47;1.17;;;10.90;98.00;;;;;;5034130;28;20457;-72
2023/01/13 00:35:15;;;;;;;1.60;1.10;;;10.90;98.00;;;;;;5034024;28;20533;-72
2023/01/13 00:37:43;;;;;;;1.20;1.10;;;11.00;98.00;;;;;;5032671;28;20459;-72
2023/01/13 00:40:12;;;;;;;1.20;1.00;;;10.90;98.00;;;;;;5033995;28;20466;-72
2023/01/13 00:45:24;;;;;;;1.23;1.10;;;10.90;98.00;;;;;;5033463;28;20533;-72
2023/01/13 00:47:51;;;;;;;1.40;1.00;;;10.90;98.00;;;;;;5033452;28;20456;-72
2023/01/13 00:50:18;;;;;;;1.27;1.10;;;10.90;98.00;;;;;;5033188;28;20461;-72
2023/01/13 00:52:45;;;;;;;2.90;1.10;;;10.90;98.00;;;;;;5033159;28;20461;-72
2023/01/13 00:55:13;;;;;;;1.17;1.00;;;10.90;98.00;;;;;;5033508;28;20465;-72
2023/01/13 00:57:41;;;;;;;1.20;1.00;;;11.00;98.00;;;;;;5033308;28;20458;-72
2023/01/13 01:00:09;;;;;;;1.20;1.10;;;11.00;98.00;;;;;;5032116;28;20457;-72
2023/01/13 01:02:37;;;;;;;1.17;1.00;;;11.00;98.00;;;;;;5015656;28;20469;-72
2023/01/13 01:05:04;;;;;;;2.13;1.30;;;11.00;98.00;;;;;;5032974;28;20494;-72
2023/01/13 01:09:59;;;;;;;2.03;1.10;;;11.00;98.00;;;;;;5030448;28;20480;-72
2023/01/13 01:12:28;;;;;;;1.33;1.00;;;11.00;98.00;;;;;;5032324;28;20471;-72
2023/01/13 01:14:55;;;;;;;1.20;1.00;;;11.00;98.00;;;;;;5030821;28;20489;-72
2023/01/13 01:17:23;;;;;;;1.30;1.20;;;11.00;98.00;;;;;;5032177;28;20559;-72
2023/01/13 01:19:50;;;;;;;1.30;1.10;;;11.00;98.00;;;;;;5014708;28;20458;-72
2023/01/13 01:22:17;;;;;;;1.23;1.00;;;11.00;98.00;;;;;;5014536;28;20460;-72
2023/01/13 01:24:45;;;;;;;1.20;1.13;;;11.10;98.00;;;;;;5031948;28;20702;-72
2023/01/13 01:27:12;;;;;;;1.47;1.10;;;11.00;98.00;;;;;;4998598;28;20869;-72
2023/01/13 01:29:40;;;;;;;2.13;1.27;;;11.10;98.00;;;;;;5014392;28;20458;-72
2023/01/13 01:32:07;;;;;;;1.33;1.13;;;11.10;98.00;;;;;;5031960;28;20459;-72
2023/01/13 01:34:35;;;;;;;1.20;1.20;;;11.10;98.00;;;;;;5014247;28;20461;-72
2023/01/13 01:37:03;;;;;;;1.40;1.23;;;11.10;98.00;;;;;;5031907;28;20505;-72
2023/01/13 01:39:30;;;;;;;1.73;1.20;;;11.10;98.00;;;;;;5031908;28;20473;-72
2023/01/13 01:45:00;;;;;;;1.40;1.20;;;11.00;98.00;;;;;;5031847;28;20497;-72
2023/01/13 01:47:29;;;;;;;2.70;1.20;;;11.10;98.00;;;;;;5031654;28;20463;-72
2023/01/13 01:49:57;;;;;;;1.20;1.00;;;11.10;98.00;;;;;;5013994;28;20526;-72
2023/01/13 01:52:30;;;;;;;1.20;1.10;;;11.10;98.00;;;;;;5031756;28;20670;-72
2023/01/13 01:55:01;;;;;;;1.40;1.17;;;11.10;98.00;;;;;;5031385;28;20466;-72
2023/01/13 01:57:33;;;;;;;2.13;1.00;;;11.10;98.00;;;;;;5031511;28;20458;-72
2023/01/13 02:00:02;;;;;;;2.60;1.03;;;11.20;98.00;;;;;;5031338;28;20462;-72
2023/01/13 02:02:31;;;;;;;1.87;1.20;;;11.20;98.00;;;;;;5031380;28;20538;-72
2023/01/13 02:04:59;;;;;;;1.40;1.00;;;11.20;98.00;;;;;;5031127;28;20660;-72
2023/01/13 02:07:28;;;;;;;1.80;1.10;;;11.20;98.00;;;;;;5013832;28;20461;-72
2023/01/13 02:09:57;;;;;;;1.20;1.00;;;11.20;98.00;;;;;;5030826;28;20473;-72
2023/01/13 02:12:30;;;;;;;1.20;1.00;;;11.20;98.00;;;;;;5031132;28;20465;-72
2023/01/13 02:15:03;;;;;;;1.40;1.10;;;11.20;98.00;;;;;;5031206;28;20484;-72
2023/01/13 02:17:59;;;;;;;1.67;1.23;;;11.20;98.00;;;;;;5031232;28;20947;-72
2023/01/13 02:20:45;;;;;;;1.60;1.20;;;11.20;98.00;;;;;;5025912;28;20953;-72
2023/01/13 02:27:23;;;;;;;1.93;1.20;;;11.20;98.00;;;;;;5018735;28;20575;-72
2023/01/13 02:33:10;;;;;;;1.20;1.00;;;11.20;98.00;;;;;;5031186;28;20454;-72
2023/01/13 02:35:47;;;;;;;1.40;1.03;;;11.20;98.00;;;;;;5014823;28;20463;-72
2023/01/13 02:38:16;;;;;;;1.50;1.27;;;11.10;98.00;;;;;;5031404;28;20466;-72
2023/01/13 02:40:48;;;;;;;1.17;1.03;;;11.20;98.00;;;;;;5031103;28;20462;-72
2023/01/13 02:46:17;;;;;;;1.20;1.00;;;11.20;98.00;;;;;;5030979;28;20475;-72
2023/01/13 02:48:48;;;;;;;1.30;1.10;;;11.20;98.00;;;;;;5030994;28;20463;-72
2023/01/13 02:51:18;;;;;;;1.60;1.40;;;11.20;98.00;;;;;;5031016;28;20458;-72
2023/01/13 02:53:53;;;;;;;1.27;1.13;;;11.20;98.00;;;;;;5030860;28;20455;-72
2023/01/13 02:56:23;;;;;;;2.57;1.43;;;11.20;98.00;;;;;;5030451;28;20478;-72
2023/01/13 02:58:51;;;;;;;1.20;1.00;;;11.20;98.00;;;;;;5030820;28;20546;-72
2023/01/13 03:01:20;;;;;;;1.20;1.10;;;11.20;98.00;;;;;;5030749;28;20949;-72
2023/01/13 03:03:48;;;;;;;1.20;1.03;;;11.10;98.00;;;;;;5030660;28;20471;-72
2023/01/13 03:06:33;;;;;;;1.10;0.90;;;11.10;98.00;;;;;;5030704;28;20488;-72
2023/01/13 03:09:06;;;;;;;2.03;1.10;;;11.10;98.00;;;;;;5030503;28;20482;-72
2023/01/13 03:11:39;;;;;;;2.00;1.30;;;11.20;98.00;;;;;;5030731;28;20465;-72
2023/01/13 03:14:23;;;;;;;1.83;1.17;;;11.20;98.00;;;;;;5013234;28;20485;-72
2023/01/13 03:17:05;;;;;;;2.03;1.10;;;11.20;98.00;;;;;;5030742;28;20463;-72
2023/01/13 03:19:41;;;;;;;2.03;1.40;;;11.20;98.00;;;;;;5030603;28;20464;-72
2023/01/13 03:22:21;;;;;;;1.30;1.07;;;11.20;98.00;;;;;;5031428;28;20528;-72
2023/01/13 03:24:53;;;;;;;1.47;1.00;;;11.20;98.00;;;;;;5034538;28;20448;-72
2023/01/13 03:27:25;;;;;;;2.43;1.33;;;11.20;98.00;;;;;;5017100;28;20492;-72
2023/01/13 03:29:59;;;;;;;2.60;1.20;;;11.20;98.00;;;;;;5032578;28;20970;-72
2023/01/13 03:32:30;;;;;;;1.77;1.17;;;11.10;98.00;;;;;;5034172;28;20470;-72
2023/01/13 03:35:05;;;;;;;2.87;1.13;;;11.20;98.00;;;;;;5034339;28;20498;-72
2023/01/13 03:37:35;;;;;;;1.70;1.17;;;11.30;98.00;;;;;;5034435;28;20463;-72
2023/01/13 03:40:07;;;;;;;1.57;1.10;;;11.20;98.00;;;;;;5034323;28;20503;-72
2023/01/13 03:42:37;;;;;;;2.10;1.23;;;11.20;98.00;;;;;;5034116;28;21158;-72
2023/01/13 03:45:09;;;;;;;1.20;1.20;;;11.20;98.00;;;;;;5034027;28;20463;-72
2023/01/13 03:47:42;;;;;;;1.20;1.00;;;11.20;98.00;;;;;;5033849;28;20762;-72
2023/01/13 03:50:15;;;;;;;1.67;1.00;;;11.10;98.00;;;;;;5033723;28;20450;-72
2023/01/13 03:52:45;;;;;;;1.20;1.10;;;11.20;98.00;;;;;;5033849;28;20547;-72
2023/01/13 03:55:17;;;;;;;1.97;1.20;;;11.10;98.00;;;;;;5033824;28;20458;-72
2023/01/13 03:57:49;;;;;;;1.20;1.00;;;11.10;98.00;;;;;;5033720;28;20459;-72
2023/01/13 04:00:18;;;;;;;1.20;1.10;;;11.10;98.00;;;;;;5033644;28;20837;-72
2023/01/13 04:02:51;;;;;;;1.77;1.20;;;11.10;98.00;;;;;;5033793;28;20469;-72
2023/01/13 04:05:19;;;;;;;4.30;1.00;;;11.10;98.00;;;;;;5033423;28;20486;-72
2023/01/13 04:07:56;;;;;;;1.30;1.10;;;11.10;98.00;;;;;;5033420;28;20822;-72
2023/01/13 04:10:28;;;;;;;1.20;1.07;;;11.00;98.00;;;;;;5033426;28;20462;-72
2023/01/13 04:13:00;;;;;;;6.53;1.10;;;11.00;98.00;;;;;;5033772;28;20530;-72
2023/01/13 04:15:30;;;;;;;1.23;1.07;;;11.00;98.00;;;;;;5015663;28;20460;-72
2023/01/13 04:18:12;;;;;;;1.37;1.10;;;11.00;98.00;;;;;;5015919;28;20466;-72
2023/01/13 04:20:40;;;;;;;1.30;1.10;;;11.00;98.00;;;;;;5016566;28;20471;-72
2023/01/13 04:23:07;;;;;;;2.80;1.10;;;11.00;98.00;;;;;;5016425;28;20847;-72
2023/01/13 04:25:34;;;;;;;3.70;1.20;;;11.00;98.00;;;;;;5034075;28;20453;-72
2023/01/13 04:28:01;;;;;;;1.27;1.00;;;11.00;98.00;;;;;;5033743;28;20454;-72
2023/01/13 04:30:28;;;;;;;1.20;1.03;;;11.00;98.00;;;;;;5033324;28;20472;-72
2023/01/13 04:32:56;;;;;;;1.17;1.00;;;10.90;98.00;;;;;;5033124;28;20462;-72
2023/01/13 04:35:25;;;;;;;1.20;1.00;;;11.00;98.00;;;;;;5033140;28;20460;-72
2023/01/13 04:37:52;;;;;;;1.50;1.10;;;11.00;98.00;;;;;;5032983;28;20469;-72
2023/01/13 04:40:19;;;;;;;2.00;1.10;;;11.00;98.00;;;;;;5033134;28;20478;-72
2023/01/13 04:42:46;;;;;;;1.40;1.20;;;11.00;98.00;;;;;;5033189;28;20467;-72
2023/01/13 04:45:14;;;;;;;1.20;1.00;;;10.90;98.00;;;;;;5015459;28;20458;-72
2023/01/13 04:47:42;;;;;;;2.17;1.20;;;10.90;98.00;;;;;;5015283;28;20485;-72
2023/01/13 04:50:10;;;;;;;1.30;1.03;;;11.00;98.00;;;;;;5032700;28;20945;-72
2023/01/13 04:52:40;;;;;;;1.70;1.20;;;10.90;98.00;;;;;;5015141;28;20455;-72
2023/01/13 04:55:09;;;;;;;1.77;1.27;;;11.00;98.00;;;;;;5032590;28;20944;-72
2023/01/13 04:57:38;;;;;;;1.20;1.00;;;10.90;98.00;;;;;;5032630;28;20473;-72
2023/01/13 05:00:06;;;;;;;1.30;1.10;;;10.90;98.00;;;;;;5032361;28;20977;-72
2023/01/13 05:02:34;;;;;;;1.40;1.10;;;10.90;98.00;;;;;;5032419;28;20540;-72
2023/01/13 05:05:01;;;;;;;1.20;0.90;;;10.90;98.00;;;;;;5032523;28;20459;-72
2023/01/13 05:07:28;;;;;;;2.03;1.20;;;10.90;98.00;;;;;;5014763;28;20845;-72
2023/01/13 05:09:56;;;;;;;1.20;1.10;;;10.90;98.00;;;;;;5032421;28;20462;-72
2023/01/13 05:17:57;;;;;;;1.17;1.00;;;11.00;98.00;;;;;;5032788;28;20988;-72
2023/01/13 05:20:24;;;;;;;1.43;1.13;;;11.00;98.00;;;;;;5032505;28;20467;-72
2023/01/13 05:25:40;;;;;;;1.30;1.10;;;11.10;98.00;;;;;;5032354;28;20449;-72
2023/01/13 05:28:08;;;;;;;1.20;1.00;;;11.10;98.00;;;;;;5032069;28;20576;-72
2023/01/13 05:30:41;;;;;;;1.20;1.10;;;11.10;98.00;;;;;;5031745;28;21026;-72
2023/01/13 05:33:08;;;;;;;1.20;1.00;;;11.10;98.00;;;;;;5032134;28;20830;-72
2023/01/13 05:35:37;;;;;;;1.30;1.03;;;11.10;98.00;;;;;;5031957;28;20463;-72
2023/01/13 05:38:04;;;;;;;1.20;1.00;;;11.10;98.00;;;;;;5032394;28;20809;-72
2023/01/13 05:43:23;;;;;;;1.20;1.00;;;11.10;98.00;;;;;;5017071;28;20446;-72
2023/01/13 05:45:58;;;;;;;1.20;1.17;;;11.10;98.00;;;;;;5031036;28;20465;-72
2023/01/13 05:48:26;;;;;;;1.20;1.10;;;11.10;98.00;;;;;;5031633;28;20847;-72
2023/01/13 05:50:54;;;;;;;1.80;1.23;;;11.10;98.00;;;;;;5031625;28;20544;-72
2023/01/13 05:53:22;;;;;;;1.37;1.00;;;11.10;98.00;;;;;;5031587;28;20461;-72
2023/01/13 05:55:49;;;;;;;1.20;1.00;;;11.10;98.00;;;;;;5031633;28;20846;-72
2023/01/13 05:58:19;;;;;;;1.40;1.13;;;11.10;98.00;;;;;;5031356;28;21016;-72
2023/01/13 06:00:47;;;;;;;1.83;1.13;;;11.10;98.00;;;;;;5031426;28;20481;-72
2023/01/13 06:03:15;;;;;;;2.03;1.10;;;11.10;98.00;;;;;;5031301;28;20726;-72
2023/01/13 06:05:43;;;;;;;1.20;1.00;;;11.10;98.00;;;;;;5031323;28;20483;-72
2023/01/13 06:08:10;;;;;;;1.33;1.10;;;11.10;98.00;;;;;;5031038;28;20523;-72
2023/01/13 06:10:37;;;;;;;1.20;1.00;;;11.10;98.00;;;;;;5031144;28;20476;-72
2023/01/13 06:13:05;;;;;;;1.33;1.10;;;11.10;98.00;;;;;;5031359;28;20465;-72
2023/01/13 06:15:34;;;;;;;1.20;1.00;;;11.20;98.00;;;;;;5031131;28;20740;-72
2023/01/13 06:18:03;;;;;;;1.20;1.10;;;11.10;98.00;;;;;;5031366;28;20463;-72
2023/01/13 06:20:30;;;;;;;1.20;0.90;;;11.20;98.00;;;;;;5031075;28;20474;-72
2023/01/13 06:22:59;;;;;;;1.20;1.00;;;11.10;98.00;;;;;;5031173;28;20461;-72
2023/01/13 06:25:39;;;;;;;1.27;1.10;;;11.10;98.00;;;;;;5030935;28;20459;-72
2023/01/13 06:28:07;;;;;;;1.20;1.00;;;11.10;98.00;;;;;;5031077;28;20483;-72
2023/01/13 06:30:39;;;;;;;1.17;0.93;;;11.10;98.00;;;;;;5031059;28;20456;-72
2023/01/13 06:33:13;;;;;;;1.47;1.07;;;11.00;98.00;;;;;;5031202;28;20454;-72
2023/01/13 06:35:46;;;;;;;1.30;1.00;;;11.10;98.00;;;;;;5031199;28;20952;-72
2023/01/13 06:38:16;;;;;;;1.10;1.00;;;11.20;98.00;;;;;;5031483;28;20460;-72
2023/01/13 06:40:44;;;;;;;1.20;1.00;;;11.20;98.00;;;;;;5031099;28;20456;-72
2023/01/13 06:43:16;;;;;;;1.20;1.00;;;11.10;98.00;;;;;;5030939;28;20456;-72
2023/01/13 06:45:49;;;;;;;1.53;1.10;;;11.10;98.00;;;;;;5030974;28;20515;-72
2023/01/13 06:48:17;;;;;;;1.20;1.00;;;11.10;98.00;;;;;;5030679;28;20487;-72
2023/01/13 06:50:44;;;;;;;1.27;1.13;;;11.10;98.00;;;;;;5030935;28;20517;-72
2023/01/13 06:53:11;;;;;;;1.20;0.90;;;11.00;98.00;;;;;;5013574;28;20458;-72
2023/01/13 06:55:39;;;;;;;1.10;0.90;;;11.10;98.00;;;;;;5030632;28;20457;-72
2023/01/13 06:58:06;;;;;;;2.40;1.30;;;11.10;98.00;;;;;;5034746;28;20477;-72
2023/01/13 07:00:35;;;;;;;1.30;1.00;;;11.20;98.00;;;;;;5034645;28;20463;-70
2023/01/13 07:03:08;;;;;;;1.20;1.00;;;11.20;98.00;;;;;;5034848;28;20448;-70
2023/01/13 07:05:35;;;;;;;1.20;1.10;;;11.10;98.00;;;;;;5034521;28;20481;-70
2023/01/13 07:08:03;;;;;;;1.20;1.00;;;11.10;98.00;;;;;;5034439;28;20584;-70
2023/01/13 07:10:30;;;;;;;1.20;1.00;;;11.20;98.00;;;;;;5034349;28;20558;-70
2023/01/13 07:15:54;;;;;;;1.20;1.00;;;11.20;98.00;;;;;;5034554;28;20443;-70
2023/01/13 07:18:26;;;;;;;1.10;0.90;;;11.20;98.00;;;;;;5034353;28;20550;-70
2023/01/13 07:20:55;;;;;;;1.30;1.03;;;11.20;98.00;;;;;;5017274;28;20459;-70
2023/01/13 07:23:23;;;;;;;1.20;0.90;;;11.20;98.00;;;;;;5034214;28;20960;-69
2023/01/13 07:25:51;;;;;;;1.10;0.90;;;11.20;98.00;;;;;;5034354;28;20829;-70
2023/01/13 07:28:18;;;;;;;1.10;0.90;;;11.30;98.00;;;;;;5034082;28;20485;-70
2023/01/13 07:30:46;;;;;;;1.10;1.00;;;11.30;98.00;;;;;;5034312;28;20503;-70
2023/01/13 07:33:13;;;;;;;1.30;1.17;;;11.20;98.00;;;;;;5034317;28;20477;-70
2023/01/13 07:35:42;;;;;;;1.20;1.00;;;11.30;98.00;;;;;;5034189;28;20458;-70
2023/01/13 07:38:09;;;;;;;1.50;1.00;;;11.30;98.00;;;;;;5016752;28;20456;-70
2023/01/13 07:40:36;;;;;;;1.30;1.20;;;11.30;98.00;;;;;;5034100;28;20459;-70
2023/01/13 07:45:48;;;;;;;1.13;1.00;;;11.30;98.00;;;;;;5034068;28;20448;-70
2023/01/13 07:48:15;;;;;;;1.20;1.07;;;11.20;98.00;;;;;;5016470;28;21075;-70
2023/01/13 07:50:44;;;;;;;1.13;0.97;;;11.20;98.00;;;;;;5016099;28;20460;-70
2023/01/13 07:53:11;;;;;;;1.40;1.20;;;11.10;98.00;;;;;;5034018;28;20459;-69
2023/01/13 07:55:41;;;;;;;1.30;1.00;;;11.10;98.00;;;;;;5033413;28;20492;-69
2023/01/13 07:58:09;;;;;;;1.20;1.00;;;11.20;98.00;;;;;;5033780;28;20459;-69
2023/01/13 08:00:36;;;;;;;1.27;1.00;;;11.20;98.00;;;;;;5033485;28;20468;-70
2023/01/13 08:03:03;;;;;;;1.20;1.00;;;11.20;98.00;;;;;;5033450;28;20453;-69
2023/01/13 08:05:30;;;;;;;1.73;1.17;;;11.20;98.00;;;;;;5033434;28;20448;-69
2023/01/13 08:07:59;;;;;;;1.20;1.00;;;11.20;98.00;;;;;;5032661;28;20548;-69
2023/01/13 08:10:26;;;;;;;1.20;1.00;;;11.20;98.00;;;;;;5033213;28;20460;-69
2023/01/13 08:15:38;;;;;;;1.17;0.93;;;11.20;98.00;;;;;;5033425;28;20449;-69
2023/01/13 08:18:05;;;;;;;1.20;1.00;;;11.30;98.00;;;;;;5033396;28;20467;-69
2023/01/13 08:20:32;;;;;;;1.30;1.03;;;11.30;98.00;;;;;;5033190;28;20456;-69
2023/01/13 08:23:01;;;;;;;1.10;1.00;;;11.30;98.00;;;;;;5033286;28;21018;-69
2023/01/13 08:25:29;;;;;;;2.57;1.10;;;11.30;98.00;;;;;;5033110;28;20861;-69
2023/01/13 08:27:58;;;;;;;1.70;1.30;;;11.30;98.00;;;;;;5033298;28;21022;-69
2023/01/13 08:30:26;;;;;;;1.20;1.00;;;11.30;98.00;;;;;;5032989;28;20468;-69
2023/01/13 08:32:53;;;;;;;1.30;1.00;;;11.30;98.00;;;;;;5033155;28;20451;-69
2023/01/13 08:35:20;;;;;;;1.90;1.10;;;11.40;98.00;;;;;;5033035;28;20465;-69
2023/01/13 08:37:48;;;;;;;1.20;1.00;;;11.40;98.00;;;;;;5033283;28;20462;-69
2023/01/13 08:40:19;;;;;;;1.43;1.03;;;11.40;98.00;;;;;;5015373;28;20540;-70
2023/01/13 08:42:47;;;;;;;1.20;0.97;;;11.50;98.00;;;;;;5032892;28;20948;-70
2023/01/13 08:45:14;;;;;;;1.20;0.97;;;11.60;98.00;;;;;;5015550;28;20453;-69
2023/01/13 08:47:41;;;;;;;1.37;1.10;;;11.60;98.00;;;;;;5032927;28;20485;-69
2023/01/13 08:50:10;;;;;;;1.20;1.20;;;11.60;98.00;;;;;;5032887;28;20466;-69
2023/01/13 08:52:37;;;;;;;1.10;0.90;;;11.50;98.00;;;;;;5032655;28;20462;-69
2023/01/13 08:55:04;;;;;;;1.50;1.10;;;11.50;98.00;;;;;;5032804;28;20594;-69
2023/01/13 08:57:33;;;;;;;1.70;1.17;;;11.40;98.00;;;;;;5029527;28;20465;-69
2023/01/13 09:00:08;;;;;;;1.10;1.00;;;11.30;98.00;;;;;;5032497;28;20450;-69
2023/01/13 09:02:35;;;;;;;1.10;1.00;;;11.00;98.00;;;;;;5046054;28;20442;-70
2023/01/13 09:05:05;;;;;;;1.20;1.00;;;10.90;98.00;;;;;;5044365;28;20462;-69
2023/01/13 09:07:34;;;;;;;1.20;1.00;;;10.80;98.00;;;;;;5038798;28;20597;-70
2023/01/13 09:10:01;;;;;;;1.20;1.00;;;10.80;98.00;;;;;;5029936;28;20486;-70
2023/01/13 09:15:17;;;;;;;1.17;0.90;;;10.60;98.00;;;;;;5017491;28;20455;-70
2023/01/13 09:17:44;;;;;;;1.20;1.00;;;10.70;98.00;;;;;;5039360;28;20652;-70
2023/01/13 09:20:12;;;;;;;1.10;1.00;;;10.70;98.00;;;;;;5048422;28;20828;-69
2023/01/13 09:22:40;;;;;;;1.10;0.90;;;10.70;98.00;;;;;;5039982;28;20467;-70
2023/01/13 09:25:07;;;;;;;1.20;1.00;;;10.70;98.00;;;;;;5039493;28;20450;-69
2023/01/13 09:27:34;;;;;;;1.50;1.00;;;10.70;98.00;;;;;;5039381;28;20478;-69
2023/01/13 09:30:01;;;;;;;1.10;1.00;;;10.60;98.00;;;;;;5048807;28;20454;-70
2023/01/13 09:32:30;;;;;;;1.57;1.00;;;10.70;98.00;;;;;;5012568;28;20833;-70
2023/01/13 09:34:58;;;;;;;1.10;1.00;;;10.70;98.00;;;;;;5039234;28;20452;-69
2023/01/13 09:37:26;;;;;;;1.40;1.10;;;10.40;98.00;;;;;;5039286;28;20458;-69
2023/01/13 09:39:53;;;;;;;1.10;1.00;;;10.20;98.00;;;;;;5039810;28;20819;-69
2023/01/13 09:45:15;;;;;;;1.20;1.00;;;10.10;98.00;;;;;;5041017;28;20816;-70
2023/01/13 09:47:50;;;;;;;1.20;1.00;;;9.90;98.00;;;;;;5039673;28;20495;-69
2023/01/13 09:50:30;;;;;;;1.17;1.00;;;9.90;98.00;;;;;;5033174;28;21087;-69
2023/01/13 09:52:59;;;;;;;1.40;1.00;;;9.70;98.00;;;;;;5045347;28;20459;-69
2023/01/13 09:55:32;;;;;;;1.20;1.00;;;9.70;98.00;;;;;;5033235;28;20480;-69
2023/01/13 09:58:01;;;;;;;1.13;0.90;;;9.80;98.00;;;;;;5048018;28;20468;-69
2023/01/13 10:00:35;;;;;;;1.30;1.03;;;9.80;98.00;;;;;;5045177;28;21072;-69
2023/01/13 10:03:21;;;;;;;1.97;1.40;;;9.90;98.00;;;;;;5043652;28;20550;-69
2023/01/13 10:05:56;;;;;;;1.20;1.10;;;9.90;98.00;;;;;;5029757;28;20459;-69
2023/01/13 10:08:26;;;;;;;1.10;0.90;;;9.90;98.00;;;;;;5012401;28;20520;-69
2023/01/13 10:13:12;;;;;;;1.10;1.00;;;9.90;98.00;;;;;;5029397;28;20548;-69
2023/01/13 10:13:49;;;;;;;1.10;1.00;;;9.90;98.00;;;;;;5027903;28;20473;-69
2023/01/13 10:16:25;;;;;;;1.20;1.03;;;9.90;98.00;;;;;;5028074;28;20493;-69
2023/01/13 10:19:04;;;;;;;1.10;0.90;;;9.90;98.00;;;;;;5029914;28;20470;-70
2023/01/13 10:22:14;;;;;;;1.10;0.97;;;9.80;98.00;;;;;;5035438;28;21021;-69
2023/01/13 10:25:08;;;;;;;1.20;1.00;;;9.90;98.00;;;;;;5029236;28;20548;-71
2023/01/13 10:27:37;;;;;;;1.20;1.03;;;9.80;98.00;;;;;;5035734;28;20807;-69
2023/01/13 10:30:20;;;;;;;8.00;1.47;;;9.70;98.00;;;;;;5033789;28;20470;-69
2023/01/13 10:32:52;;;;;;;1.20;0.90;;;9.60;98.00;;;;;;5048775;28;20462;-69
2023/01/13 10:35:52;;;;;;;1.30;1.00;;;9.50;98.00;;;;;;5040739;28;20967;-69
2023/01/13 10:38:21;;;;;;;1.10;0.90;;;9.50;98.00;;;;;;5031039;28;20533;-69
2023/01/13 10:40:50;;;;;;;1.17;0.90;;;9.50;98.00;;;;;;5039328;28;20459;-70
2023/01/13 10:43:18;;;;;;;1.20;1.00;;;9.50;98.00;;;;;;5039083;28;20798;-69
2023/01/13 10:46:03;;;;;;;1.10;0.90;;;9.30;98.00;;;;;;5039938;28;20461;-69
2023/01/13 10:48:37;;;;;;;1.10;1.00;;;9.20;98.00;;;;;;5037189;28;20490;-69
2023/01/13 10:51:18;;;;;;;1.10;1.00;;;9.20;98.00;;;;;;5045570;28;20952;-69
2023/01/13 10:53:50;;;;;;;1.20;1.00;;;9.20;98.00;;;;;;5048645;28;20450;-69
2023/01/13 10:56:19;;;;;;;1.10;0.90;;;9.30;98.00;;;;;;5038332;28;20849;-69
2023/01/13 10:58:46;;;;;;;1.63;1.10;;;9.30;98.00;;;;;;5032419;28;20461;-69
2023/01/13 11:01:24;;;;;;;1.30;1.00;;;9.40;98.00;;;;;;5044027;28;20477;-69
2023/01/13 11:03:52;;;;;;;1.10;1.00;;;9.50;98.00;;;;;;5039001;28;20468;-69
2023/01/13 11:06:23;;;;;;;1.10;0.90;;;9.50;98.00;;;;;;5040104;28;20495;-69
2023/01/13 11:08:54;;;;;;;1.20;1.00;;;9.60;98.00;;;;;;5028452;28;20906;-69
2023/01/13 11:11:43;;;;;;;1.20;1.00;;;9.70;98.00;;;;;;5028765;28;20476;-69
2023/01/13 11:14:35;;;;;;;1.10;1.00;;;9.50;98.00;;;;;;5028227;28;20456;-69
2023/01/13 11:17:09;;;;;;;1.17;1.00;;;9.60;98.00;;;;;;5029219;28;20467;-69
2023/01/13 11:19:42;;;;;;;1.63;1.10;;;9.50;98.00;;;;;;5029423;28;20492;-69
2023/01/13 11:22:16;;;;;;;1.20;1.00;;;9.60;98.00;;;;;;5028585;28;20939;-69
2023/01/13 11:24:49;;;;;;;1.23;1.03;;;9.60;98.00;;;;;;5044525;28;20461;-69
2023/01/13 11:27:22;;;;;;;3.23;1.00;;;9.60;98.00;;;;;;5041231;28;20529;-69
2023/01/13 11:30:01;;;;;;;1.10;1.00;;;9.50;98.00;;;;;;5038699;28;20526;-69
2023/01/13 11:32:35;;;;;;;3.77;1.30;;;9.30;98.00;;;;;;5028844;28;20472;-69
2023/01/13 11:35:13;;;;;;;1.83;1.13;;;9.30;98.00;;;;;;5021005;28;20458;-70
2023/01/13 11:37:49;;;;;;;1.17;1.07;;;9.20;98.00;;;;;;5028439;28;20460;-69
2023/01/13 11:40:21;;;;;;;1.10;1.00;;;9.10;98.00;;;;;;5037479;28;20451;-69
2023/01/13 11:42:53;;;;;;;6.90;1.10;;;9.10;98.00;;;;;;5042112;28;20469;-69
2023/01/13 11:45:25;;;;;;;1.20;1.00;;;9.20;98.00;;;;;;5047591;28;20516;-69
2023/01/13 11:47:57;;;;;;;1.20;1.10;;;9.10;98.00;;;;;;5036287;28;20465;-69
2023/01/13 11:50:33;;;;;;;1.30;1.00;;;9.20;98.00;;;;;;5043109;28;20517;-69
2023/01/13 11:53:28;;;;;;;1.20;1.00;;;9.10;98.00;;;;;;5038158;28;20895;-69
2023/01/13 11:56:08;;;;;;;1.10;1.00;;;9.10;98.00;;;;;;5034207;28;20462;-69
2023/01/13 11:59:02;;;;;;;1.30;1.10;;;9.00;98.00;;;;;;5042144;28;20464;-70
2023/01/13 12:01:42;;;;;;;1.10;0.97;;;8.90;98.00;;;;;;5045537;28;20464;-68
2023/01/13 12:04:27;;;;;;;1.20;1.00;;;8.90;98.00;;;;;;5013631;28;20510;-69
2023/01/13 12:07:11;;;;;;;1.30;1.00;;;8.80;98.00;;;;;;5032441;28;20462;-69
2023/01/13 12:09:57;;;;;;;1.17;0.97;;;8.90;98.00;;;;;;5031015;28;20579;-70
2023/01/13 12:12:35;;;;;;;2.17;1.20;;;8.80;98.00;;;;;;5037408;28;20471;-69
2023/01/13 12:15:28;;;;;;;1.20;1.10;;;8.70;98.00;;;;;;5045191;28;20531;-69
2023/01/13 12:18:20;;;;;;;1.20;1.20;;;8.70;98.00;;;;;;5044325;28;20458;-69
2023/01/13 12:20:57;;;;;;;1.10;1.00;;;8.70;98.00;;;;;;5017065;28;20477;-71
2023/01/13 12:23:30;;;;;;;1.40;1.10;;;8.80;98.00;;;;;;5040438;28;20491;-69
2023/01/13 12:26:05;;;;;;;1.20;1.20;;;8.80;98.00;;;;;;5034574;28;21241;-69
2023/01/13 12:28:42;;;;;;;1.10;0.90;;;8.80;98.00;;;;;;5049987;28;21009;-69
2023/01/13 12:31:10;;;;;;;1.10;0.90;;;8.90;98.00;;;;;;5037886;28;20503;-69
2023/01/13 12:33:52;;;;;;;1.10;0.90;;;8.90;98.00;;;;;;5042442;28;20461;-69
2023/01/13 12:36:25;;;;;;;1.30;1.10;;;8.90;98.00;;;;;;5034932;28;20465;-69
2023/01/13 12:39:09;;;;;;;1.10;1.00;;;8.80;98.00;;;;;;5049280;28;20457;-69
2023/01/13 12:45:07;;;;;;;1.20;1.00;;;8.90;98.00;;;;;;5032859;28;20503;-68
2023/01/13 12:47:35;;;;;;;1.20;1.07;;;9.20;98.00;;;;;;5033683;28;20460;-67
2023/01/13 12:50:36;;;;;;;2.50;1.20;;;9.60;98.00;;;;;;5033302;28;20485;-69
2023/01/13 12:53:31;;;;;;;1.63;1.10;;;9.70;98.00;;;;;;5033561;28;20477;-69
2023/01/13 12:56:22;;;;;;;1.20;1.00;;;10.10;98.00;;;;;;5033445;28;20525;-69
2023/01/13 12:58:51;;;;;;;1.20;1.00;;;10.30;98.00;;;;;;5033299;28;20461;-73
2023/01/13 13:01:19;;;;;;;1.23;1.10;;;10.20;98.00;;;;;;5033288;28;20451;-69
2023/01/13 13:04:08;;;;;;;1.10;1.00;;;10.00;98.00;;;;;;5033227;28;20462;-71
2023/01/13 13:06:38;;;;;;;1.57;1.07;;;9.90;98.00;;;;;;5033097;28;20465;-70
2023/01/13 13:09:13;;;;;;;1.20;1.10;;;9.80;98.00;;;;;;5033115;28;20580;-70
2023/01/13 13:15:03;;;;;;;1.20;1.10;;;9.70;98.00;;;;;;5033215;28;20451;-72
2023/01/13 13:17:44;;;;;;;1.10;1.00;;;9.60;98.00;;;;;;5010711;28;20546;-69
2023/01/13 13:20:52;;;;;;;2.13;1.53;;;9.80;98.00;;;;;;5010569;28;20522;-69
2023/01/13 13:23:36;;;;;;;1.40;1.10;;;10.10;98.00;;;;;;5029198;28;20513;-69
2023/01/13 13:26:11;;;;;;;1.93;1.03;;;10.60;98.00;;;;;;5033055;28;20469;-70
2023/01/13 13:28:46;;;;;;;1.10;1.00;;;10.80;98.00;;;;;;5032999;28;20499;-72
2023/01/13 13:31:36;;;;;;;1.30;1.00;;;10.90;98.00;;;;;;5032813;28;20964;-71
2023/01/13 13:34:15;;;;;;;1.20;1.00;;;10.80;98.00;;;;;;5032954;28;20470;-71
2023/01/13 13:36:58;;;;;;;1.50;1.10;;;10.70;98.00;;;;;;5032851;28;20469;-71
2023/01/13 13:47:48;;;;;;;2.33;1.27;;;10.30;98.00;;;;;;5032511;28;20477;-72
2023/01/13 13:50:19;;;;;;;1.40;1.03;;;10.40;98.00;;;;;;5032273;28;20498;-71
2023/01/13 13:52:53;;;;;;;3.83;1.10;;;10.40;98.00;;;;;;5032400;28;20497;-69
2023/01/13 13:55:22;;;;;;;1.20;1.00;;;10.40;98.00;;;;;;5032101;28;20516;-69
2023/01/13 13:57:51;;;;;;;3.60;1.00;;;10.30;98.00;;;;;;5031848;28;20951;-69
2023/01/13 14:00:25;;;;;;;1.20;1.10;;;10.20;98.00;;;;;;5031954;28;20574;-70
2023/01/13 14:02:57;;;;;;;1.50;1.27;;;10.10;98.00;;;;;;5032092;28;20454;-70
2023/01/13 14:05:26;;;;;;;10.63;1.60;;;10.00;98.00;;;;;;5031967;28;20505;-69
2023/01/13 14:08:00;;;;;;;1.40;1.10;;;9.90;98.00;;;;;;5031962;28;20478;-71
2023/01/13 14:10:31;;;;;;;1.80;1.47;;;9.80;98.00;;;;;;5032098;28;20878;-71
2023/01/13 14:13:02;;;;;;;2.63;1.10;;;9.80;98.00;;;;;;5032312;28;20450;-70